sensor_id;sensor_type;location;lat;lon;timestamp;P1;durP1;ratioP1;P2;durP2;ratioP2
54699;SDS011;40599;53.132;6.090;2023-03-01T00:00:37;22.65;;;16.77;;
54699;SDS011;40599;53.132;6.090;2023-03-01T00:03:04;22.55;;;16.90;;
54699;SDS011;40599;53.132;6.090;2023-03-01T00:05:30;22.38;;;16.60;;
54699;SDS011;40599;53.132;6.090;2023-03-01T00:07:57;22.17;;;16.48;;
54699;SDS011;40599;53.132;6.090;2023-03-01T00:10:23;21.67;;;16.50;;
54699;SDS011;40599;53.132;6.090;2023-03-01T00:12:51;22.52;;;17.73;;
54699;SDS011;40599;53.132;6.090;2023-03-01T00:15:18;22.65;;;16.80;;
54699;SDS011;40599;53.132;6.090;2023-03-01T00:17:44;26.15;;;17.75;;
54699;SDS011;40599;53.132;6.090;2023-03-01T00:20:10;24.02;;;17.85;;
54699;SDS011;40599;53.132;6.090;2023-03-01T00:22:36;23.42;;;17.65;;
54699;SDS011;40599;53.132;6.090;2023-03-01T00:25:03;24.42;;;16.73;;
54699;SDS011;40599;53.132;6.090;2023-03-01T00:27:29;25.25;;;17.27;;
54699;SDS011;40599;53.132;6.090;2023-03-01T00:29:55;23.10;;;17.05;;
54699;SDS011;40599;53.132;6.090;2023-03-01T00:32:21;23.48;;;17.02;;
54699;SDS011;40599;53.132;6.090;2023-03-01T00:34:48;24.13;;;17.42;;
54699;SDS011;40599;53.132;6.090;2023-03-01T00:37:19;21.98;;;17.02;;
54699;SDS011;40599;53.132;6.090;2023-03-01T00:39:45;21.15;;;17.20;;
54699;SDS011;40599;53.132;6.090;2023-03-01T00:42:12;24.23;;;17.13;;
54699;SDS011;40599;53.132;6.090;2023-03-01T00:44:38;22.52;;;17.35;;
54699;SDS011;40599;53.132;6.090;2023-03-01T00:47:04;23.92;;;17.23;;
54699;SDS011;40599;53.132;6.090;2023-03-01T00:49:30;24.60;;;18.30;;
54699;SDS011;40599;53.132;6.090;2023-03-01T00:51:56;26.00;;;18.45;;
54699;SDS011;40599;53.132;6.090;2023-03-01T00:54:22;29.75;;;19.40;;
54699;SDS011;40599;53.132;6.090;2023-03-01T00:56:49;29.15;;;19.48;;
54699;SDS011;40599;53.132;6.090;2023-03-01T00:59:15;32.05;;;20.13;;
54699;SDS011;40599;53.132;6.090;2023-03-01T01:01:41;26.83;;;18.67;;
54699;SDS011;40599;53.132;6.090;2023-03-01T01:04:08;26.80;;;18.88;;
54699;SDS011;40599;53.132;6.090;2023-03-01T01:06:36;26.40;;;19.02;;
54699;SDS011;40599;53.132;6.090;2023-03-01T01:09:03;22.85;;;17.50;;
54699;SDS011;40599;53.132;6.090;2023-03-01T01:11:30;27.25;;;18.40;;
54699;SDS011;40599;53.132;6.090;2023-03-01T01:13:56;24.55;;;17.52;;
54699;SDS011;40599;53.132;6.090;2023-03-01T01:16:23;18.42;;;14.00;;
54699;SDS011;40599;53.132;6.090;2023-03-01T01:18:50;19.02;;;15.80;;
54699;SDS011;40599;53.132;6.090;2023-03-01T01:23:44;19.92;;;15.93;;
54699;SDS011;40599;53.132;6.090;2023-03-01T01:28:37;17.73;;;15.77;;
54699;SDS011;40599;53.132;6.090;2023-03-01T01:31:03;18.15;;;15.50;;
54699;SDS011;40599;53.132;6.090;2023-03-01T01:33:29;23.40;;;16.65;;
54699;SDS011;40599;53.132;6.090;2023-03-01T01:35:56;20.42;;;16.50;;
54699;SDS011;40599;53.132;6.090;2023-03-01T01:38:22;15.82;;;12.48;;
54699;SDS011;40599;53.132;6.090;2023-03-01T01:40:49;20.20;;;16.92;;
54699;SDS011;40599;53.132;6.090;2023-03-01T01:43:18;20.02;;;15.43;;
54699;SDS011;40599;53.132;6.090;2023-03-01T01:45:45;20.30;;;16.23;;
54699;SDS011;40599;53.132;6.090;2023-03-01T01:48:13;19.20;;;14.90;;
54699;SDS011;40599;53.132;6.090;2023-03-01T01:50:42;22.50;;;16.02;;
54699;SDS011;40599;53.132;6.090;2023-03-01T01:53:11;21.92;;;15.65;;
54699;SDS011;40599;53.132;6.090;2023-03-01T01:55:39;20.23;;;15.93;;
54699;SDS011;40599;53.132;6.090;2023-03-01T01:58:07;21.92;;;15.70;;
54699;SDS011;40599;53.132;6.090;2023-03-01T02:03:02;17.33;;;14.82;;
54699;SDS011;40599;53.132;6.090;2023-03-01T02:07:58;15.40;;;13.68;;
54699;SDS011;40599;53.132;6.090;2023-03-01T02:10:25;15.43;;;13.85;;
54699;SDS011;40599;53.132;6.090;2023-03-01T02:15:18;14.82;;;13.32;;
54699;SDS011;40599;53.132;6.090;2023-03-01T02:17:44;15.07;;;13.52;;
54699;SDS011;40599;53.132;6.090;2023-03-01T02:22:39;13.82;;;12.50;;
54699;SDS011;40599;53.132;6.090;2023-03-01T02:30:28;14.52;;;13.00;;
54699;SDS011;40599;53.132;6.090;2023-03-01T02:32:55;15.10;;;13.07;;
54699;SDS011;40599;53.132;6.090;2023-03-01T02:35:28;63.45;;;16.52;;
54699;SDS011;40599;53.132;6.090;2023-03-01T02:37:55;17.33;;;14.35;;
54699;SDS011;40599;53.132;6.090;2023-03-01T02:40:22;17.95;;;14.80;;
54699;SDS011;40599;53.132;6.090;2023-03-01T02:42:50;17.02;;;14.77;;
54699;SDS011;40599;53.132;6.090;2023-03-01T02:45:17;17.38;;;15.10;;
54699;SDS011;40599;53.132;6.090;2023-03-01T02:47:43;17.20;;;14.80;;
54699;SDS011;40599;53.132;6.090;2023-03-01T02:52:45;16.20;;;14.50;;
54699;SDS011;40599;53.132;6.090;2023-03-01T02:55:16;18.98;;;14.98;;
54699;SDS011;40599;53.132;6.090;2023-03-01T02:57:44;23.42;;;15.13;;
54699;SDS011;40599;53.132;6.090;2023-03-01T03:02:44;18.48;;;15.45;;
54699;SDS011;40599;53.132;6.090;2023-03-01T03:05:29;20.67;;;13.00;;
54699;SDS011;40599;53.132;6.090;2023-03-01T03:07:55;15.20;;;13.60;;
54699;SDS011;40599;53.132;6.090;2023-03-01T03:10:23;61.17;;;13.82;;
54699;SDS011;40599;53.132;6.090;2023-03-01T03:12:50;27.10;;;14.57;;
54699;SDS011;40599;53.132;6.090;2023-03-01T03:15:16;14.63;;;13.23;;
54699;SDS011;40599;53.132;6.090;2023-03-01T03:17:42;17.20;;;13.80;;
54699;SDS011;40599;53.132;6.090;2023-03-01T03:20:10;15.30;;;13.70;;
54699;SDS011;40599;53.132;6.090;2023-03-01T03:22:40;16.45;;;13.75;;
54699;SDS011;40599;53.132;6.090;2023-03-01T03:25:07;46.90;;;14.60;;
54699;SDS011;40599;53.132;6.090;2023-03-01T03:27:39;17.55;;;13.60;;
54699;SDS011;40599;53.132;6.090;2023-03-01T03:30:06;14.15;;;12.70;;
54699;SDS011;40599;53.132;6.090;2023-03-01T03:32:40;15.13;;;13.23;;
54699;SDS011;40599;53.132;6.090;2023-03-01T03:35:08;17.30;;;13.20;;
54699;SDS011;40599;53.132;6.090;2023-03-01T03:37:38;21.98;;;13.82;;
54699;SDS011;40599;53.132;6.090;2023-03-01T03:40:24;16.08;;;12.43;;
54699;SDS011;40599;53.132;6.090;2023-03-01T03:42:50;12.85;;;11.55;;
54699;SDS011;40599;53.132;6.090;2023-03-01T03:45:16;271.38;;;24.60;;
54699;SDS011;40599;53.132;6.090;2023-03-01T03:47:43;63.53;;;15.02;;
54699;SDS011;40599;53.132;6.090;2023-03-01T03:50:10;24.30;;;13.85;;
54699;SDS011;40599;53.132;6.090;2023-03-01T03:55:03;16.55;;;13.27;;
54699;SDS011;40599;53.132;6.090;2023-03-01T03:57:34;17.02;;;13.95;;
54699;SDS011;40599;53.132;6.090;2023-03-01T04:00:00;124.68;;;16.27;;
54699;SDS011;40599;53.132;6.090;2023-03-01T04:02:29;285.60;;;24.33;;
54699;SDS011;40599;53.132;6.090;2023-03-01T04:04:55;265.17;;;20.80;;
54699;SDS011;40599;53.132;6.090;2023-03-01T04:07:22;187.23;;;20.00;;
54699;SDS011;40599;53.132;6.090;2023-03-01T04:09:48;172.95;;;19.45;;
54699;SDS011;40599;53.132;6.090;2023-03-01T04:12:14;185.38;;;22.10;;
54699;SDS011;40599;53.132;6.090;2023-03-01T04:14:45;242.98;;;22.35;;
54699;SDS011;40599;53.132;6.090;2023-03-01T04:17:11;21.90;;;15.35;;
54699;SDS011;40599;53.132;6.090;2023-03-01T04:19:37;41.03;;;16.08;;
54699;SDS011;40599;53.132;6.090;2023-03-01T04:22:04;93.95;;;17.00;;
54699;SDS011;40599;53.132;6.090;2023-03-01T04:24:37;57.90;;;16.85;;
54699;SDS011;40599;53.132;6.090;2023-03-01T04:27:03;98.93;;;18.35;;
54699;SDS011;40599;53.132;6.090;2023-03-01T04:29:29;20.98;;;14.95;;
54699;SDS011;40599;53.132;6.090;2023-03-01T04:31:55;41.70;;;16.42;;
54699;SDS011;40599;53.132;6.090;2023-03-01T04:34:22;41.10;;;15.85;;
54699;SDS011;40599;53.132;6.090;2023-03-01T04:36:48;23.00;;;15.23;;
54699;SDS011;40599;53.132;6.090;2023-03-01T04:39:14;24.45;;;15.48;;
54699;SDS011;40599;53.132;6.090;2023-03-01T04:41:40;26.83;;;15.60;;
54699;SDS011;40599;53.132;6.090;2023-03-01T04:44:08;20.23;;;15.52;;
54699;SDS011;40599;53.132;6.090;2023-03-01T04:46:34;61.55;;;17.50;;
54699;SDS011;40599;53.132;6.090;2023-03-01T04:49:01;22.10;;;15.48;;
54699;SDS011;40599;53.132;6.090;2023-03-01T04:51:27;24.40;;;16.00;;
54699;SDS011;40599;53.132;6.090;2023-03-01T04:53:53;25.20;;;15.90;;
54699;SDS011;40599;53.132;6.090;2023-03-01T04:56:20;24.42;;;14.32;;
54699;SDS011;40599;53.132;6.090;2023-03-01T04:58:48;25.92;;;15.60;;
54699;SDS011;40599;53.132;6.090;2023-03-01T05:01:15;46.53;;;16.15;;
54699;SDS011;40599;53.132;6.090;2023-03-01T05:03:46;86.38;;;18.50;;
54699;SDS011;40599;53.132;6.090;2023-03-01T05:06:12;126.93;;;18.88;;
54699;SDS011;40599;53.132;6.090;2023-03-01T05:08:39;77.32;;;14.30;;
54699;SDS011;40599;53.132;6.090;2023-03-01T05:11:06;73.82;;;16.08;;
54699;SDS011;40599;53.132;6.090;2023-03-01T05:13:34;24.95;;;15.20;;
54699;SDS011;40599;53.132;6.090;2023-03-01T05:16:01;40.13;;;13.40;;
54699;SDS011;40599;53.132;6.090;2023-03-01T05:18:28;67.30;;;16.50;;
54699;SDS011;40599;53.132;6.090;2023-03-01T05:20:56;75.82;;;16.40;;
54699;SDS011;40599;53.132;6.090;2023-03-01T05:23:23;19.63;;;14.32;;
54699;SDS011;40599;53.132;6.090;2023-03-01T05:25:49;37.08;;;15.93;;
54699;SDS011;40599;53.132;6.090;2023-03-01T05:28:18;23.52;;;14.50;;
54699;SDS011;40599;53.132;6.090;2023-03-01T05:30:45;26.60;;;15.68;;
54699;SDS011;40599;53.132;6.090;2023-03-01T05:33:11;17.50;;;14.65;;
54699;SDS011;40599;53.132;6.090;2023-03-01T05:35:40;19.27;;;14.27;;
54699;SDS011;40599;53.132;6.090;2023-03-01T05:38:07;18.98;;;14.10;;
54699;SDS011;40599;53.132;6.090;2023-03-01T05:40:34;27.95;;;16.95;;
54699;SDS011;40599;53.132;6.090;2023-03-01T05:43:00;25.42;;;14.07;;
54699;SDS011;40599;53.132;6.090;2023-03-01T05:45:27;35.47;;;16.25;;
54699;SDS011;40599;53.132;6.090;2023-03-01T05:47:53;86.70;;;16.92;;
54699;SDS011;40599;53.132;6.090;2023-03-01T05:50:21;23.50;;;14.93;;
54699;SDS011;40599;53.132;6.090;2023-03-01T05:52:48;27.58;;;15.68;;
54699;SDS011;40599;53.132;6.090;2023-03-01T05:55:16;31.15;;;16.75;;
54699;SDS011;40599;53.132;6.090;2023-03-01T05:57:42;39.25;;;15.25;;
54699;SDS011;40599;53.132;6.090;2023-03-01T06:00:09;22.67;;;16.00;;
54699;SDS011;40599;53.132;6.090;2023-03-01T06:02:35;85.10;;;17.90;;
54699;SDS011;40599;53.132;6.090;2023-03-01T06:05:02;47.53;;;17.20;;
54699;SDS011;40599;53.132;6.090;2023-03-01T06:07:29;26.60;;;16.58;;
54699;SDS011;40599;53.132;6.090;2023-03-01T06:09:55;20.58;;;15.75;;
54699;SDS011;40599;53.132;6.090;2023-03-01T06:12:21;24.98;;;17.48;;
54699;SDS011;40599;53.132;6.090;2023-03-01T06:14:47;23.15;;;16.85;;
54699;SDS011;40599;53.132;6.090;2023-03-01T06:17:13;26.13;;;17.95;;
54699;SDS011;40599;53.132;6.090;2023-03-01T06:19:40;20.65;;;15.43;;
54699;SDS011;40599;53.132;6.090;2023-03-01T06:22:06;24.63;;;17.02;;
54699;SDS011;40599;53.132;6.090;2023-03-01T06:24:33;21.98;;;16.60;;
54699;SDS011;40599;53.132;6.090;2023-03-01T06:26:59;22.40;;;16.45;;
54699;SDS011;40599;53.132;6.090;2023-03-01T06:29:25;21.33;;;16.33;;
54699;SDS011;40599;53.132;6.090;2023-03-01T06:31:52;22.90;;;16.60;;
54699;SDS011;40599;53.132;6.090;2023-03-01T06:34:18;30.13;;;19.17;;
54699;SDS011;40599;53.132;6.090;2023-03-01T06:36:46;26.23;;;17.27;;
54699;SDS011;40599;53.132;6.090;2023-03-01T06:39:13;26.05;;;18.10;;
54699;SDS011;40599;53.132;6.090;2023-03-01T06:41:39;29.20;;;19.75;;
54699;SDS011;40599;53.132;6.090;2023-03-01T06:44:06;32.85;;;19.92;;
54699;SDS011;40599;53.132;6.090;2023-03-01T06:46:32;26.45;;;17.58;;
54699;SDS011;40599;53.132;6.090;2023-03-01T06:48:58;29.77;;;18.90;;
54699;SDS011;40599;53.132;6.090;2023-03-01T06:51:25;28.27;;;18.70;;
54699;SDS011;40599;53.132;6.090;2023-03-01T06:53:51;27.02;;;18.17;;
54699;SDS011;40599;53.132;6.090;2023-03-01T06:56:17;29.13;;;18.38;;
54699;SDS011;40599;53.132;6.090;2023-03-01T06:58:44;25.77;;;19.08;;
54699;SDS011;40599;53.132;6.090;2023-03-01T07:01:10;28.40;;;18.85;;
54699;SDS011;40599;53.132;6.090;2023-03-01T07:03:36;27.85;;;18.77;;
54699;SDS011;40599;53.132;6.090;2023-03-01T07:06:02;27.15;;;18.75;;
54699;SDS011;40599;53.132;6.090;2023-03-01T07:08:28;32.22;;;19.80;;
54699;SDS011;40599;53.132;6.090;2023-03-01T07:10:55;28.73;;;19.45;;
54699;SDS011;40599;53.132;6.090;2023-03-01T07:13:22;29.40;;;17.93;;
54699;SDS011;40599;53.132;6.090;2023-03-01T07:15:48;27.17;;;18.65;;
54699;SDS011;40599;53.132;6.090;2023-03-01T07:18:14;36.20;;;21.48;;
54699;SDS011;40599;53.132;6.090;2023-03-01T07:20:40;26.75;;;18.63;;
54699;SDS011;40599;53.132;6.090;2023-03-01T07:23:06;30.20;;;18.75;;
54699;SDS011;40599;53.132;6.090;2023-03-01T07:25:33;26.58;;;19.50;;
54699;SDS011;40599;53.132;6.090;2023-03-01T07:27:59;20.83;;;15.68;;
54699;SDS011;40599;53.132;6.090;2023-03-01T07:30:26;24.90;;;15.27;;
54699;SDS011;40599;53.132;6.090;2023-03-01T07:32:53;22.65;;;17.65;;
54699;SDS011;40599;53.132;6.090;2023-03-01T07:35:20;20.55;;;15.13;;
54699;SDS011;40599;53.132;6.090;2023-03-01T07:37:46;28.83;;;19.35;;
54699;SDS011;40599;53.132;6.090;2023-03-01T07:40:12;30.70;;;19.02;;
54699;SDS011;40599;53.132;6.090;2023-03-01T07:42:39;29.67;;;19.58;;
54699;SDS011;40599;53.132;6.090;2023-03-01T07:45:05;30.08;;;20.45;;
54699;SDS011;40599;53.132;6.090;2023-03-01T07:47:32;30.95;;;20.77;;
54699;SDS011;40599;53.132;6.090;2023-03-01T07:49:58;32.40;;;22.80;;
54699;SDS011;40599;53.132;6.090;2023-03-01T07:52:24;36.17;;;23.60;;
54699;SDS011;40599;53.132;6.090;2023-03-01T07:54:50;41.40;;;24.20;;
54699;SDS011;40599;53.132;6.090;2023-03-01T07:57:16;40.72;;;24.75;;
54699;SDS011;40599;53.132;6.090;2023-03-01T07:59:43;44.90;;;27.88;;
54699;SDS011;40599;53.132;6.090;2023-03-01T08:02:09;45.72;;;28.38;;
54699;SDS011;40599;53.132;6.090;2023-03-01T08:04:36;46.70;;;28.75;;
54699;SDS011;40599;53.132;6.090;2023-03-01T08:07:04;48.38;;;28.73;;
54699;SDS011;40599;53.132;6.090;2023-03-01T08:09:30;44.67;;;27.20;;
54699;SDS011;40599;53.132;6.090;2023-03-01T08:11:56;40.20;;;26.48;;
54699;SDS011;40599;53.132;6.090;2023-03-01T08:14:26;45.92;;;27.48;;
54699;SDS011;40599;53.132;6.090;2023-03-01T08:16:52;41.63;;;26.17;;
54699;SDS011;40599;53.132;6.090;2023-03-01T08:19:18;47.30;;;28.65;;
54699;SDS011;40599;53.132;6.090;2023-03-01T08:21:44;46.58;;;28.67;;
54699;SDS011;40599;53.132;6.090;2023-03-01T08:24:10;43.00;;;27.13;;
54699;SDS011;40599;53.132;6.090;2023-03-01T08:26:37;47.17;;;28.65;;
54699;SDS011;40599;53.132;6.090;2023-03-01T08:29:03;50.38;;;28.65;;
54699;SDS011;40599;53.132;6.090;2023-03-01T08:31:31;51.05;;;28.48;;
54699;SDS011;40599;53.132;6.090;2023-03-01T08:33:59;46.40;;;27.83;;
54699;SDS011;40599;53.132;6.090;2023-03-01T08:36:26;44.85;;;27.65;;
54699;SDS011;40599;53.132;6.090;2023-03-01T08:41:19;52.60;;;28.02;;
54699;SDS011;40599;53.132;6.090;2023-03-01T08:43:45;47.70;;;28.50;;
54699;SDS011;40599;53.132;6.090;2023-03-01T08:46:12;37.80;;;21.25;;
54699;SDS011;40599;53.132;6.090;2023-03-01T08:48:38;38.88;;;22.25;;
54699;SDS011;40599;53.132;6.090;2023-03-01T08:51:18;51.35;;;27.15;;
54699;SDS011;40599;53.132;6.090;2023-03-01T08:53:45;47.15;;;26.90;;
54699;SDS011;40599;53.132;6.090;2023-03-01T08:56:11;46.53;;;28.85;;
54699;SDS011;40599;53.132;6.090;2023-03-01T08:58:38;47.90;;;27.30;;
54699;SDS011;40599;53.132;6.090;2023-03-01T09:01:07;47.85;;;26.88;;
54699;SDS011;40599;53.132;6.090;2023-03-01T09:03:34;41.05;;;26.10;;
54699;SDS011;40599;53.132;6.090;2023-03-01T09:06:00;51.35;;;27.77;;
54699;SDS011;40599;53.132;6.090;2023-03-01T09:08:27;50.10;;;30.70;;
54699;SDS011;40599;53.132;6.090;2023-03-01T09:10:53;52.28;;;30.58;;
54699;SDS011;40599;53.132;6.090;2023-03-01T09:13:20;54.47;;;30.05;;
54699;SDS011;40599;53.132;6.090;2023-03-01T09:15:48;52.15;;;31.27;;
54699;SDS011;40599;53.132;6.090;2023-03-01T09:18:14;53.75;;;31.80;;
54699;SDS011;40599;53.132;6.090;2023-03-01T09:20:41;52.47;;;31.92;;
54699;SDS011;40599;53.132;6.090;2023-03-01T09:23:07;53.08;;;32.72;;
54699;SDS011;40599;53.132;6.090;2023-03-01T09:25:34;54.25;;;33.55;;
54699;SDS011;40599;53.132;6.090;2023-03-01T09:28:00;50.55;;;31.73;;
54699;SDS011;40599;53.132;6.090;2023-03-01T09:30:26;51.63;;;31.80;;
54699;SDS011;40599;53.132;6.090;2023-03-01T09:32:52;46.75;;;29.13;;
54699;SDS011;40599;53.132;6.090;2023-03-01T09:35:18;46.55;;;28.75;;
54699;SDS011;40599;53.132;6.090;2023-03-01T09:37:45;45.00;;;27.80;;
54699;SDS011;40599;53.132;6.090;2023-03-01T09:40:16;53.72;;;30.35;;
54699;SDS011;40599;53.132;6.090;2023-03-01T09:42:48;41.25;;;26.77;;
54699;SDS011;40599;53.132;6.090;2023-03-01T09:45:20;38.70;;;25.58;;
54699;SDS011;40599;53.132;6.090;2023-03-01T09:47:49;37.75;;;24.30;;
54699;SDS011;40599;53.132;6.090;2023-03-01T09:50:17;42.05;;;24.13;;
54699;SDS011;40599;53.132;6.090;2023-03-01T09:53:01;34.65;;;22.80;;
54699;SDS011;40599;53.132;6.090;2023-03-01T09:55:37;41.00;;;23.30;;
54699;SDS011;40599;53.132;6.090;2023-03-01T10:00:49;31.50;;;20.10;;
54699;SDS011;40599;53.132;6.090;2023-03-01T10:03:25;32.55;;;20.70;;
54699;SDS011;40599;53.132;6.090;2023-03-01T10:06:12;33.30;;;19.98;;
54699;SDS011;40599;53.132;6.090;2023-03-01T10:08:41;25.73;;;17.70;;
54699;SDS011;40599;53.132;6.090;2023-03-01T10:11:25;24.98;;;16.52;;
54699;SDS011;40599;53.132;6.090;2023-03-01T10:19:04;22.67;;;14.40;;
54699;SDS011;40599;53.132;6.090;2023-03-01T10:24:00;24.63;;;16.02;;
54699;SDS011;40599;53.132;6.090;2023-03-01T10:29:05;19.45;;;13.90;;
54699;SDS011;40599;53.132;6.090;2023-03-01T10:34:11;23.08;;;15.32;;
54699;SDS011;40599;53.132;6.090;2023-03-01T10:36:38;21.20;;;15.98;;
54699;SDS011;40599;53.132;6.090;2023-03-01T10:39:11;22.83;;;15.52;;
54699;SDS011;40599;53.132;6.090;2023-03-01T10:41:40;20.38;;;15.68;;
54699;SDS011;40599;53.132;6.090;2023-03-01T10:47:02;20.90;;;15.73;;
54699;SDS011;40599;53.132;6.090;2023-03-01T10:49:29;22.30;;;15.88;;
54699;SDS011;40599;53.132;6.090;2023-03-01T10:51:55;24.92;;;16.27;;
54699;SDS011;40599;53.132;6.090;2023-03-01T10:54:29;21.65;;;17.00;;
54699;SDS011;40599;53.132;6.090;2023-03-01T10:56:59;31.05;;;20.05;;
54699;SDS011;40599;53.132;6.090;2023-03-01T10:59:30;26.27;;;18.92;;
54699;SDS011;40599;53.132;6.090;2023-03-01T11:02:20;26.25;;;16.92;;
54699;SDS011;40599;53.132;6.090;2023-03-01T11:07:27;24.17;;;16.10;;
54699;SDS011;40599;53.132;6.090;2023-03-01T11:09:54;23.05;;;16.85;;
54699;SDS011;40599;53.132;6.090;2023-03-01T11:12:20;20.15;;;14.77;;
54699;SDS011;40599;53.132;6.090;2023-03-01T11:14:47;19.73;;;15.80;;
54699;SDS011;40599;53.132;6.090;2023-03-01T11:17:28;23.63;;;14.82;;
54699;SDS011;40599;53.132;6.090;2023-03-01T11:22:47;22.65;;;15.52;;
54699;SDS011;40599;53.132;6.090;2023-03-01T11:25:13;21.92;;;16.48;;
54699;SDS011;40599;53.132;6.090;2023-03-01T11:27:44;20.85;;;15.93;;
54699;SDS011;40599;53.132;6.090;2023-03-01T11:35:25;23.80;;;17.15;;
54699;SDS011;40599;53.132;6.090;2023-03-01T11:40:29;51.13;;;29.05;;
54699;SDS011;40599;53.132;6.090;2023-03-01T11:45:23;29.42;;;19.83;;
54699;SDS011;40599;53.132;6.090;2023-03-01T11:50:28;21.92;;;15.63;;
54699;SDS011;40599;53.132;6.090;2023-03-01T11:52:58;21.17;;;15.30;;
54699;SDS011;40599;53.132;6.090;2023-03-01T11:55:39;22.55;;;15.35;;
54699;SDS011;40599;53.132;6.090;2023-03-01T12:09:35;19.85;;;16.20;;
54699;SDS011;40599;53.132;6.090;2023-03-01T12:24:27;25.10;;;18.30;;
54699;SDS011;40599;53.132;6.090;2023-03-01T12:27:05;30.77;;;19.38;;
54699;SDS011;40599;53.132;6.090;2023-03-01T12:37:29;32.53;;;19.80;;
54699;SDS011;40599;53.132;6.090;2023-03-01T12:50:15;24.88;;;17.67;;
54699;SDS011;40599;53.132;6.090;2023-03-01T12:55:35;25.27;;;17.52;;
54699;SDS011;40599;53.132;6.090;2023-03-01T13:05:41;24.50;;;16.70;;
54699;SDS011;40599;53.132;6.090;2023-03-01T13:08:32;23.88;;;16.02;;
54699;SDS011;40599;53.132;6.090;2023-03-01T13:11:04;21.20;;;15.32;;
54699;SDS011;40599;53.132;6.090;2023-03-01T13:13:31;22.88;;;16.27;;
54699;SDS011;40599;53.132;6.090;2023-03-01T13:15:57;24.98;;;16.67;;
54699;SDS011;40599;53.132;6.090;2023-03-01T13:18:43;21.73;;;15.25;;
54699;SDS011;40599;53.132;6.090;2023-03-01T13:21:09;21.33;;;15.70;;
54699;SDS011;40599;53.132;6.090;2023-03-01T13:23:37;23.65;;;16.05;;
54699;SDS011;40599;53.132;6.090;2023-03-01T13:26:08;23.55;;;16.67;;
54699;SDS011;40599;53.132;6.090;2023-03-01T13:33:41;23.23;;;15.13;;
54699;SDS011;40599;53.132;6.090;2023-03-01T13:36:07;20.48;;;14.82;;
54699;SDS011;40599;53.132;6.090;2023-03-01T13:38:54;21.98;;;14.70;;
54699;SDS011;40599;53.132;6.090;2023-03-01T13:46:51;20.48;;;15.02;;
54699;SDS011;40599;53.132;6.090;2023-03-01T13:49:20;21.40;;;15.32;;
54699;SDS011;40599;53.132;6.090;2023-03-01T13:51:47;23.40;;;15.43;;
54699;SDS011;40599;53.132;6.090;2023-03-01T13:54:14;22.42;;;15.38;;
54699;SDS011;40599;53.132;6.090;2023-03-01T13:56:40;21.52;;;14.40;;
54699;SDS011;40599;53.132;6.090;2023-03-01T13:59:17;23.35;;;14.63;;
54699;SDS011;40599;53.132;6.090;2023-03-01T14:01:43;22.70;;;14.68;;
54699;SDS011;40599;53.132;6.090;2023-03-01T14:04:30;18.05;;;13.95;;
54699;SDS011;40599;53.132;6.090;2023-03-01T14:07:10;21.35;;;14.88;;
54699;SDS011;40599;53.132;6.090;2023-03-01T14:09:37;20.38;;;14.82;;
54699;SDS011;40599;53.132;6.090;2023-03-01T14:19:58;21.20;;;14.30;;
54699;SDS011;40599;53.132;6.090;2023-03-01T14:24:55;20.88;;;14.13;;
54699;SDS011;40599;53.132;6.090;2023-03-01T14:27:21;21.67;;;14.82;;
54699;SDS011;40599;53.132;6.090;2023-03-01T14:29:56;18.98;;;14.40;;
54699;SDS011;40599;53.132;6.090;2023-03-01T14:32:27;22.25;;;14.05;;
54699;SDS011;40599;53.132;6.090;2023-03-01T14:34:53;22.75;;;14.77;;
54699;SDS011;40599;53.132;6.090;2023-03-01T14:37:21;19.60;;;13.30;;
54699;SDS011;40599;53.132;6.090;2023-03-01T14:39:48;20.42;;;13.38;;
54699;SDS011;40599;53.132;6.090;2023-03-01T14:42:15;17.70;;;12.90;;
54699;SDS011;40599;53.132;6.090;2023-03-01T14:44:45;16.35;;;12.45;;
54699;SDS011;40599;53.132;6.090;2023-03-01T14:47:14;18.60;;;13.35;;
54699;SDS011;40599;53.132;6.090;2023-03-01T14:49:41;22.05;;;14.65;;
54699;SDS011;40599;53.132;6.090;2023-03-01T14:52:16;24.23;;;13.63;;
54699;SDS011;40599;53.132;6.090;2023-03-01T14:54:44;20.35;;;13.30;;
54699;SDS011;40599;53.132;6.090;2023-03-01T14:57:16;17.95;;;13.65;;
54699;SDS011;40599;53.132;6.090;2023-03-01T14:59:43;17.63;;;13.00;;
54699;SDS011;40599;53.132;6.090;2023-03-01T15:02:13;16.65;;;12.63;;
54699;SDS011;40599;53.132;6.090;2023-03-01T15:04:48;16.55;;;12.07;;
54699;SDS011;40599;53.132;6.090;2023-03-01T15:07:15;17.30;;;12.98;;
54699;SDS011;40599;53.132;6.090;2023-03-01T15:09:42;16.85;;;12.00;;
54699;SDS011;40599;53.132;6.090;2023-03-01T15:14:53;20.83;;;13.20;;
54699;SDS011;40599;53.132;6.090;2023-03-01T15:17:33;17.17;;;12.68;;
54699;SDS011;40599;53.132;6.090;2023-03-01T15:20:00;17.63;;;13.27;;
54699;SDS011;40599;53.132;6.090;2023-03-01T15:22:27;20.35;;;13.40;;
54699;SDS011;40599;53.132;6.090;2023-03-01T15:24:53;17.67;;;14.85;;
54699;SDS011;40599;53.132;6.090;2023-03-01T15:27:21;20.35;;;13.55;;
54699;SDS011;40599;53.132;6.090;2023-03-01T15:29:48;21.95;;;14.55;;
54699;SDS011;40599;53.132;6.090;2023-03-01T15:34:54;19.95;;;14.10;;
54699;SDS011;40599;53.132;6.090;2023-03-01T15:37:38;21.17;;;13.10;;
54699;SDS011;40599;53.132;6.090;2023-03-01T15:42:46;18.38;;;13.02;;
54699;SDS011;40599;53.132;6.090;2023-03-01T15:47:58;18.95;;;13.30;;
54699;SDS011;40599;53.132;6.090;2023-03-01T15:50:29;19.15;;;13.55;;
54699;SDS011;40599;53.132;6.090;2023-03-01T15:52:58;19.10;;;13.82;;
54699;SDS011;40599;53.132;6.090;2023-03-01T15:55:28;18.33;;;13.32;;
54699;SDS011;40599;53.132;6.090;2023-03-01T16:00:25;20.08;;;14.93;;
54699;SDS011;40599;53.132;6.090;2023-03-01T16:02:51;14.02;;;11.52;;
54699;SDS011;40599;53.132;6.090;2023-03-01T16:05:26;17.35;;;14.18;;
54699;SDS011;40599;53.132;6.090;2023-03-01T16:07:53;18.67;;;15.40;;
54699;SDS011;40599;53.132;6.090;2023-03-01T16:10:19;23.65;;;15.98;;
54699;SDS011;40599;53.132;6.090;2023-03-01T16:12:45;19.98;;;14.40;;
54699;SDS011;40599;53.132;6.090;2023-03-01T16:15:17;20.85;;;16.10;;
54699;SDS011;40599;53.132;6.090;2023-03-01T16:17:43;20.52;;;16.02;;
54699;SDS011;40599;53.132;6.090;2023-03-01T16:20:09;20.58;;;15.68;;
54699;SDS011;40599;53.132;6.090;2023-03-01T16:22:36;22.10;;;15.98;;
54699;SDS011;40599;53.132;6.090;2023-03-01T16:25:02;26.02;;;17.75;;
54699;SDS011;40599;53.132;6.090;2023-03-01T16:27:28;21.92;;;16.15;;
54699;SDS011;40599;53.132;6.090;2023-03-01T16:29:55;22.40;;;17.25;;
54699;SDS011;40599;53.132;6.090;2023-03-01T16:32:21;22.25;;;16.27;;
54699;SDS011;40599;53.132;6.090;2023-03-01T16:34:47;21.00;;;17.17;;
54699;SDS011;40599;53.132;6.090;2023-03-01T16:37:14;21.30;;;16.40;;
54699;SDS011;40599;53.132;6.090;2023-03-01T16:39:41;22.48;;;16.77;;
54699;SDS011;40599;53.132;6.090;2023-03-01T16:42:07;19.80;;;15.98;;
54699;SDS011;40599;53.132;6.090;2023-03-01T16:44:33;25.05;;;17.40;;
54699;SDS011;40599;53.132;6.090;2023-03-01T16:46:59;28.98;;;17.27;;
54699;SDS011;40599;53.132;6.090;2023-03-01T16:49:25;25.52;;;19.25;;
54699;SDS011;40599;53.132;6.090;2023-03-01T16:51:53;26.05;;;18.35;;
54699;SDS011;40599;53.132;6.090;2023-03-01T16:54:19;25.27;;;18.35;;
54699;SDS011;40599;53.132;6.090;2023-03-01T16:56:45;29.75;;;18.33;;
54699;SDS011;40599;53.132;6.090;2023-03-01T16:59:11;29.25;;;20.45;;